sensor_id;sensor_type;location;lat;lon;timestamp;P1;durP1;ratioP1;P2;durP2;ratioP2
77432;SDS011;66752;48.576;8.876;2023-11-21T00:01:17;9.23;;;2.92;;
77432;SDS011;66752;48.576;8.876;2023-11-21T00:03:43;7.47;;;2.85;;
77432;SDS011;66752;48.576;8.876;2023-11-21T00:06:09;9.38;;;2.42;;
77432;SDS011;66752;48.576;8.876;2023-11-21T00:08:35;5.68;;;2.00;;
77432;SDS011;66752;48.576;8.876;2023-11-21T00:11:01;8.30;;;2.65;;
77432;SDS011;66752;48.576;8.876;2023-11-21T00:13:30;10.48;;;2.70;;
77432;SDS011;66752;48.576;8.876;2023-11-21T00:15:56;7.88;;;2.55;;
77432;SDS011;66752;48.576;8.876;2023-11-21T00:18:22;6.00;;;2.58;;
77432;SDS011;66752;48.576;8.876;2023-11-21T00:20:48;5.53;;;2.40;;
77432;SDS011;66752;48.576;8.876;2023-11-21T00:23:14;8.05;;;2.00;;
77432;SDS011;66752;48.576;8.876;2023-11-21T00:25:40;5.07;;;2.00;;
77432;SDS011;66752;48.576;8.876;2023-11-21T00:28:05;8.20;;;2.60;;
77432;SDS011;66752;48.576;8.876;2023-11-21T00:30:31;7.32;;;1.98;;
77432;SDS011;66752;48.576;8.876;2023-11-21T00:32:58;6.28;;;2.08;;
77432;SDS011;66752;48.576;8.876;2023-11-21T00:35:24;7.85;;;2.17;;
77432;SDS011;66752;48.576;8.876;2023-11-21T00:37:50;4.03;;;1.30;;
77432;SDS011;66752;48.576;8.876;2023-11-21T00:40:16;4.60;;;1.75;;
77432;SDS011;66752;48.576;8.876;2023-11-21T00:42:44;5.57;;;1.88;;
77432;SDS011;66752;48.576;8.876;2023-11-21T00:47:37;5.97;;;1.75;;
77432;SDS011;66752;48.576;8.876;2023-11-21T00:50:04;6.57;;;1.88;;
77432;SDS011;66752;48.576;8.876;2023-11-21T00:52:31;5.18;;;1.70;;
77432;SDS011;66752;48.576;8.876;2023-11-21T00:54:57;6.20;;;2.28;;
77432;SDS011;66752;48.576;8.876;2023-11-21T00:57:27;5.72;;;1.92;;
77432;SDS011;66752;48.576;8.876;2023-11-21T00:59:54;5.78;;;2.22;;
77432;SDS011;66752;48.576;8.876;2023-11-21T01:02:20;8.48;;;1.95;;
77432;SDS011;66752;48.576;8.876;2023-11-21T01:04:46;5.40;;;1.77;;
77432;SDS011;66752;48.576;8.876;2023-11-21T01:07:12;6.82;;;1.65;;
77432;SDS011;66752;48.576;8.876;2023-11-21T01:09:38;3.53;;;1.75;;
77432;SDS011;66752;48.576;8.876;2023-11-21T01:12:04;6.10;;;1.52;;
77432;SDS011;66752;48.576;8.876;2023-11-21T01:14:31;5.28;;;1.65;;
77432;SDS011;66752;48.576;8.876;2023-11-21T01:16:57;6.50;;;1.70;;
77432;SDS011;66752;48.576;8.876;2023-11-21T01:19:23;5.88;;;2.42;;
77432;SDS011;66752;48.576;8.876;2023-11-21T01:21:49;6.38;;;2.22;;
77432;SDS011;66752;48.576;8.876;2023-11-21T01:24:17;5.93;;;2.30;;
77432;SDS011;66752;48.576;8.876;2023-11-21T01:26:42;7.53;;;2.03;;
77432;SDS011;66752;48.576;8.876;2023-11-21T01:29:10;5.88;;;1.88;;
77432;SDS011;66752;48.576;8.876;2023-11-21T01:31:36;5.10;;;1.65;;
77432;SDS011;66752;48.576;8.876;2023-11-21T01:34:02;4.95;;;1.95;;
77432;SDS011;66752;48.576;8.876;2023-11-21T01:36:31;8.25;;;1.90;;
77432;SDS011;66752;48.576;8.876;2023-11-21T01:38:58;5.05;;;1.85;;
77432;SDS011;66752;48.576;8.876;2023-11-21T01:41:24;7.13;;;1.60;;
77432;SDS011;66752;48.576;8.876;2023-11-21T01:43:52;4.75;;;1.50;;
77432;SDS011;66752;48.576;8.876;2023-11-21T01:46:18;4.25;;;1.25;;
77432;SDS011;66752;48.576;8.876;2023-11-21T01:53:37;5.53;;;1.50;;
77432;SDS011;66752;48.576;8.876;2023-11-21T01:56:03;6.60;;;1.70;;
77432;SDS011;66752;48.576;8.876;2023-11-21T01:58:30;4.03;;;1.20;;
77432;SDS011;66752;48.576;8.876;2023-11-21T02:00:57;9.10;;;1.90;;
77432;SDS011;66752;48.576;8.876;2023-11-21T02:03:23;7.28;;;2.47;;
77432;SDS011;66752;48.576;8.876;2023-11-21T02:05:49;4.75;;;1.95;;
77432;SDS011;66752;48.576;8.876;2023-11-21T02:08:15;6.05;;;2.85;;
77432;SDS011;66752;48.576;8.876;2023-11-21T02:10:41;6.93;;;2.60;;
77432;SDS011;66752;48.576;8.876;2023-11-21T02:13:07;5.70;;;1.85;;
77432;SDS011;66752;48.576;8.876;2023-11-21T02:15:33;5.20;;;1.60;;
77432;SDS011;66752;48.576;8.876;2023-11-21T02:17:59;4.07;;;1.60;;
77432;SDS011;66752;48.576;8.876;2023-11-21T02:20:25;4.43;;;1.48;;
77432;SDS011;66752;48.576;8.876;2023-11-21T02:22:54;7.13;;;1.50;;
77432;SDS011;66752;48.576;8.876;2023-11-21T02:25:24;4.50;;;2.17;;
77432;SDS011;66752;48.576;8.876;2023-11-21T02:27:52;5.75;;;1.55;;
77432;SDS011;66752;48.576;8.876;2023-11-21T02:30:19;4.53;;;1.58;;
77432;SDS011;66752;48.576;8.876;2023-11-21T02:32:46;3.75;;;1.45;;
77432;SDS011;66752;48.576;8.876;2023-11-21T02:35:13;4.47;;;1.77;;
77432;SDS011;66752;48.576;8.876;2023-11-21T02:37:39;4.18;;;1.27;;
77432;SDS011;66752;48.576;8.876;2023-11-21T02:40:06;3.95;;;1.42;;
77432;SDS011;66752;48.576;8.876;2023-11-21T02:42:34;6.00;;;1.27;;
77432;SDS011;66752;48.576;8.876;2023-11-21T02:45:00;3.50;;;1.20;;
77432;SDS011;66752;48.576;8.876;2023-11-21T02:47:26;4.50;;;1.40;;
77432;SDS011;66752;48.576;8.876;2023-11-21T02:49:52;5.45;;;1.77;;
77432;SDS011;66752;48.576;8.876;2023-11-21T02:52:18;5.55;;;1.23;;
77432;SDS011;66752;48.576;8.876;2023-11-21T02:54:44;3.97;;;1.50;;
77432;SDS011;66752;48.576;8.876;2023-11-21T02:57:10;4.25;;;1.30;;
77432;SDS011;66752;48.576;8.876;2023-11-21T02:59:36;4.47;;;1.50;;
77432;SDS011;66752;48.576;8.876;2023-11-21T03:02:02;5.55;;;2.00;;
77432;SDS011;66752;48.576;8.876;2023-11-21T03:04:28;4.50;;;1.38;;
77432;SDS011;66752;48.576;8.876;2023-11-21T03:06:54;5.75;;;1.67;;
77432;SDS011;66752;48.576;8.876;2023-11-21T03:09:20;4.47;;;1.70;;
77432;SDS011;66752;48.576;8.876;2023-11-21T03:11:46;5.28;;;1.45;;
77432;SDS011;66752;48.576;8.876;2023-11-21T03:14:12;5.50;;;1.58;;
77432;SDS011;66752;48.576;8.876;2023-11-21T03:16:38;3.22;;;1.25;;
77432;SDS011;66752;48.576;8.876;2023-11-21T03:19:06;6.18;;;2.35;;
77432;SDS011;66752;48.576;8.876;2023-11-21T03:21:33;9.43;;;2.35;;
77432;SDS011;66752;48.576;8.876;2023-11-21T03:23:59;5.68;;;1.77;;
77432;SDS011;66752;48.576;8.876;2023-11-21T03:26:25;4.85;;;1.50;;
77432;SDS011;66752;48.576;8.876;2023-11-21T03:28:51;4.88;;;1.55;;
77432;SDS011;66752;48.576;8.876;2023-11-21T03:31:18;4.40;;;1.80;;
77432;SDS011;66752;48.576;8.876;2023-11-21T03:33:45;5.22;;;1.50;;
77432;SDS011;66752;48.576;8.876;2023-11-21T03:36:12;3.92;;;1.30;;
77432;SDS011;66752;48.576;8.876;2023-11-21T03:38:39;3.15;;;1.10;;
77432;SDS011;66752;48.576;8.876;2023-11-21T03:41:06;4.43;;;1.52;;
77432;SDS011;66752;48.576;8.876;2023-11-21T03:43:35;3.45;;;0.95;;
77432;SDS011;66752;48.576;8.876;2023-11-21T03:46:01;2.90;;;1.00;;
77432;SDS011;66752;48.576;8.876;2023-11-21T03:48:27;2.55;;;0.88;;
77432;SDS011;66752;48.576;8.876;2023-11-21T03:50:53;4.68;;;1.10;;
77432;SDS011;66752;48.576;8.876;2023-11-21T03:53:19;3.30;;;1.38;;
77432;SDS011;66752;48.576;8.876;2023-11-21T03:55:45;3.95;;;0.90;;
77432;SDS011;66752;48.576;8.876;2023-11-21T03:58:11;3.42;;;0.95;;
77432;SDS011;66752;48.576;8.876;2023-11-21T04:00:37;2.33;;;1.00;;
77432;SDS011;66752;48.576;8.876;2023-11-21T04:03:05;3.47;;;1.08;;
77432;SDS011;66752;48.576;8.876;2023-11-21T04:05:31;2.47;;;0.73;;
77432;SDS011;66752;48.576;8.876;2023-11-21T04:07:57;4.00;;;0.90;;
77432;SDS011;66752;48.576;8.876;2023-11-21T04:10:23;2.80;;;0.80;;
77432;SDS011;66752;48.576;8.876;2023-11-21T04:12:49;3.13;;;1.10;;
77432;SDS011;66752;48.576;8.876;2023-11-21T04:15:15;3.40;;;1.35;;
77432;SDS011;66752;48.576;8.876;2023-11-21T04:17:41;4.20;;;1.92;;
77432;SDS011;66752;48.576;8.876;2023-11-21T04:20:07;3.25;;;1.23;;
77432;SDS011;66752;48.576;8.876;2023-11-21T04:22:37;3.70;;;1.27;;
77432;SDS011;66752;48.576;8.876;2023-11-21T04:25:05;2.88;;;1.10;;
77432;SDS011;66752;48.576;8.876;2023-11-21T04:27:31;3.17;;;1.30;;
77432;SDS011;66752;48.576;8.876;2023-11-21T04:29:57;2.78;;;0.90;;
77432;SDS011;66752;48.576;8.876;2023-11-21T04:32:24;2.88;;;1.00;;
77432;SDS011;66752;48.576;8.876;2023-11-21T04:34:50;2.38;;;0.80;;
77432;SDS011;66752;48.576;8.876;2023-11-21T04:37:15;2.15;;;0.80;;
77432;SDS011;66752;48.576;8.876;2023-11-21T04:39:41;2.75;;;0.68;;
77432;SDS011;66752;48.576;8.876;2023-11-21T04:42:07;2.40;;;0.77;;
77432;SDS011;66752;48.576;8.876;2023-11-21T04:44:33;3.00;;;0.65;;
77432;SDS011;66752;48.576;8.876;2023-11-21T04:46:59;2.65;;;0.90;;
77432;SDS011;66752;48.576;8.876;2023-11-21T04:49:25;2.88;;;0.90;;
77432;SDS011;66752;48.576;8.876;2023-11-21T04:51:51;3.17;;;0.90;;
77432;SDS011;66752;48.576;8.876;2023-11-21T04:54:17;2.28;;;0.85;;
77432;SDS011;66752;48.576;8.876;2023-11-21T04:56:43;4.38;;;1.00;;
77432;SDS011;66752;48.576;8.876;2023-11-21T04:59:09;2.45;;;0.90;;
77432;SDS011;66752;48.576;8.876;2023-11-21T05:01:35;2.58;;;1.08;;
77432;SDS011;66752;48.576;8.876;2023-11-21T05:04:01;4.50;;;1.02;;
77432;SDS011;66752;48.576;8.876;2023-11-21T05:06:27;3.53;;;1.10;;
77432;SDS011;66752;48.576;8.876;2023-11-21T05:08:53;4.22;;;1.30;;
77432;SDS011;66752;48.576;8.876;2023-11-21T05:11:24;4.65;;;1.70;;
77432;SDS011;66752;48.576;8.876;2023-11-21T05:13:50;4.28;;;1.38;;
77432;SDS011;66752;48.576;8.876;2023-11-21T05:16:16;3.53;;;1.40;;
77432;SDS011;66752;48.576;8.876;2023-11-21T05:18:42;3.45;;;1.40;;
77432;SDS011;66752;48.576;8.876;2023-11-21T05:21:07;3.70;;;1.38;;
77432;SDS011;66752;48.576;8.876;2023-11-21T05:23:34;4.20;;;1.33;;
77432;SDS011;66752;48.576;8.876;2023-11-21T05:26:01;4.80;;;1.38;;
77432;SDS011;66752;48.576;8.876;2023-11-21T05:28:27;4.20;;;1.25;;
77432;SDS011;66752;48.576;8.876;2023-11-21T05:30:53;4.88;;;1.30;;
77432;SDS011;66752;48.576;8.876;2023-11-21T05:33:19;3.08;;;1.20;;
77432;SDS011;66752;48.576;8.876;2023-11-21T05:35:45;4.53;;;1.13;;
77432;SDS011;66752;48.576;8.876;2023-11-21T05:38:13;3.40;;;1.50;;
77432;SDS011;66752;48.576;8.876;2023-11-21T05:40:39;3.95;;;1.40;;
77432;SDS011;66752;48.576;8.876;2023-11-21T05:43:05;2.90;;;1.00;;
77432;SDS011;66752;48.576;8.876;2023-11-21T05:45:31;3.78;;;1.20;;
77432;SDS011;66752;48.576;8.876;2023-11-21T05:47:58;2.22;;;0.98;;
77432;SDS011;66752;48.576;8.876;2023-11-21T05:50:24;4.10;;;1.10;;
77432;SDS011;66752;48.576;8.876;2023-11-21T05:52:50;2.92;;;1.10;;
77432;SDS011;66752;48.576;8.876;2023-11-21T05:55:16;3.75;;;1.45;;
77432;SDS011;66752;48.576;8.876;2023-11-21T05:57:43;3.42;;;0.98;;
77432;SDS011;66752;48.576;8.876;2023-11-21T06:00:10;4.95;;;1.70;;
77432;SDS011;66752;48.576;8.876;2023-11-21T06:02:41;3.65;;;1.55;;
77432;SDS011;66752;48.576;8.876;2023-11-21T06:05:07;4.03;;;1.35;;
77432;SDS011;66752;48.576;8.876;2023-11-21T06:07:34;4.85;;;2.10;;
77432;SDS011;66752;48.576;8.876;2023-11-21T06:10:04;4.60;;;2.00;;
77432;SDS011;66752;48.576;8.876;2023-11-21T06:12:36;5.82;;;2.40;;
77432;SDS011;66752;48.576;8.876;2023-11-21T06:15:03;5.68;;;2.63;;
77432;SDS011;66752;48.576;8.876;2023-11-21T06:17:38;6.45;;;3.33;;
77432;SDS011;66752;48.576;8.876;2023-11-21T06:20:09;7.47;;;3.42;;
77432;SDS011;66752;48.576;8.876;2023-11-21T06:22:36;8.52;;;2.63;;
77432;SDS011;66752;48.576;8.876;2023-11-21T06:25:02;5.38;;;2.03;;
77432;SDS011;66752;48.576;8.876;2023-11-21T06:27:43;5.90;;;2.63;;
77432;SDS011;66752;48.576;8.876;2023-11-21T06:30:10;5.47;;;1.80;;
77432;SDS011;66752;48.576;8.876;2023-11-21T06:35:03;4.63;;;2.22;;
77432;SDS011;66752;48.576;8.876;2023-11-21T06:37:29;4.05;;;1.52;;
77432;SDS011;66752;48.576;8.876;2023-11-21T06:39:55;4.30;;;1.85;;
77432;SDS011;66752;48.576;8.876;2023-11-21T06:42:23;4.15;;;1.52;;
77432;SDS011;66752;48.576;8.876;2023-11-21T06:44:49;4.72;;;1.75;;
77432;SDS011;66752;48.576;8.876;2023-11-21T06:47:16;4.30;;;1.88;;
77432;SDS011;66752;48.576;8.876;2023-11-21T06:49:42;8.18;;;3.00;;
77432;SDS011;66752;48.576;8.876;2023-11-21T06:52:09;8.90;;;2.70;;
77432;SDS011;66752;48.576;8.876;2023-11-21T06:54:35;8.00;;;3.42;;
77432;SDS011;66752;48.576;8.876;2023-11-21T06:57:02;7.90;;;3.75;;
77432;SDS011;66752;48.576;8.876;2023-11-21T06:59:28;11.45;;;4.10;;
77432;SDS011;66752;48.576;8.876;2023-11-21T07:01:54;6.05;;;2.47;;
77432;SDS011;66752;48.576;8.876;2023-11-21T07:04:20;8.85;;;2.20;;
77432;SDS011;66752;48.576;8.876;2023-11-21T07:06:46;6.80;;;2.75;;
77432;SDS011;66752;48.576;8.876;2023-11-21T07:09:12;18.00;;;7.88;;
77432;SDS011;66752;48.576;8.876;2023-11-21T07:11:38;15.82;;;7.35;;
77432;SDS011;66752;48.576;8.876;2023-11-21T07:14:04;22.27;;;9.13;;
77432;SDS011;66752;48.576;8.876;2023-11-21T07:16:35;36.85;;;17.58;;
77432;SDS011;66752;48.576;8.876;2023-11-21T07:19:05;31.05;;;14.10;;
77432;SDS011;66752;48.576;8.876;2023-11-21T07:21:34;43.88;;;17.13;;
77432;SDS011;66752;48.576;8.876;2023-11-21T07:24:01;40.15;;;13.75;;
77432;SDS011;66752;48.576;8.876;2023-11-21T07:26:27;45.72;;;16.75;;
77432;SDS011;66752;48.576;8.876;2023-11-21T07:28:53;11.10;;;4.07;;
77432;SDS011;66752;48.576;8.876;2023-11-21T07:31:19;8.50;;;3.58;;
77432;SDS011;66752;48.576;8.876;2023-11-21T07:33:46;8.35;;;2.85;;
77432;SDS011;66752;48.576;8.876;2023-11-21T07:36:14;5.35;;;2.08;;
77432;SDS011;66752;48.576;8.876;2023-11-21T07:38:41;4.28;;;1.63;;
77432;SDS011;66752;48.576;8.876;2023-11-21T07:41:08;7.45;;;2.05;;
77432;SDS011;66752;48.576;8.876;2023-11-21T07:43:35;6.03;;;1.92;;
77432;SDS011;66752;48.576;8.876;2023-11-21T07:46:01;6.68;;;1.65;;
77432;SDS011;66752;48.576;8.876;2023-11-21T07:48:30;4.50;;;1.60;;
77432;SDS011;66752;48.576;8.876;2023-11-21T07:50:57;4.70;;;1.45;;
77432;SDS011;66752;48.576;8.876;2023-11-21T07:53:26;3.70;;;1.50;;
77432;SDS011;66752;48.576;8.876;2023-11-21T07:55:54;6.15;;;2.15;;
77432;SDS011;66752;48.576;8.876;2023-11-21T07:58:20;4.88;;;2.00;;
77432;SDS011;66752;48.576;8.876;2023-11-21T08:00:46;6.40;;;3.03;;
77432;SDS011;66752;48.576;8.876;2023-11-21T08:03:14;6.85;;;2.30;;
77432;SDS011;66752;48.576;8.876;2023-11-21T08:05:41;7.10;;;2.45;;
77432;SDS011;66752;48.576;8.876;2023-11-21T08:08:07;5.32;;;2.22;;
77432;SDS011;66752;48.576;8.876;2023-11-21T08:10:33;9.23;;;2.45;;
77432;SDS011;66752;48.576;8.876;2023-11-21T08:13:00;4.25;;;2.00;;
77432;SDS011;66752;48.576;8.876;2023-11-21T08:15:26;6.43;;;1.80;;
77432;SDS011;66752;48.576;8.876;2023-11-21T08:17:52;5.38;;;2.60;;
77432;SDS011;66752;48.576;8.876;2023-11-21T08:20:18;3.95;;;1.98;;
77432;SDS011;66752;48.576;8.876;2023-11-21T08:22:44;6.38;;;2.33;;
77432;SDS011;66752;48.576;8.876;2023-11-21T08:25:12;4.50;;;2.10;;
77432;SDS011;66752;48.576;8.876;2023-11-21T08:27:38;6.68;;;2.03;;
77432;SDS011;66752;48.576;8.876;2023-11-21T08:30:04;7.32;;;2.65;;
77432;SDS011;66752;48.576;8.876;2023-11-21T08:32:32;5.38;;;2.30;;
77432;SDS011;66752;48.576;8.876;2023-11-21T08:34:58;4.40;;;1.98;;
77432;SDS011;66752;48.576;8.876;2023-11-21T08:37:24;4.53;;;2.17;;
77432;SDS011;66752;48.576;8.876;2023-11-21T08:39:52;4.97;;;2.80;;
77432;SDS011;66752;48.576;8.876;2023-11-21T08:42:18;6.57;;;3.03;;
77432;SDS011;66752;48.576;8.876;2023-11-21T08:44:44;6.15;;;2.50;;
77432;SDS011;66752;48.576;8.876;2023-11-21T08:47:11;5.32;;;3.03;;
77432;SDS011;66752;48.576;8.876;2023-11-21T08:49:37;4.90;;;2.75;;
77432;SDS011;66752;48.576;8.876;2023-11-21T08:52:03;4.80;;;2.33;;
77432;SDS011;66752;48.576;8.876;2023-11-21T08:54:30;6.30;;;2.05;;
77432;SDS011;66752;48.576;8.876;2023-11-21T08:56:56;5.68;;;1.35;;
77432;SDS011;66752;48.576;8.876;2023-11-21T08:59:23;4.22;;;1.75;;
77432;SDS011;66752;48.576;8.876;2023-11-21T09:01:49;4.47;;;1.50;;
77432;SDS011;66752;48.576;8.876;2023-11-21T09:04:15;5.65;;;1.85;;
77432;SDS011;66752;48.576;8.876;2023-11-21T09:06:41;6.30;;;3.58;;
77432;SDS011;66752;48.576;8.876;2023-11-21T09:09:07;8.50;;;4.03;;
77432;SDS011;66752;48.576;8.876;2023-11-21T09:11:35;5.03;;;2.60;;
77432;SDS011;66752;48.576;8.876;2023-11-21T09:14:01;5.38;;;2.80;;
77432;SDS011;66752;48.576;8.876;2023-11-21T09:16:28;5.10;;;2.42;;
77432;SDS011;66752;48.576;8.876;2023-11-21T09:18:54;5.10;;;2.30;;
77432;SDS011;66752;48.576;8.876;2023-11-21T09:21:20;6.07;;;2.50;;
77432;SDS011;66752;48.576;8.876;2023-11-21T09:23:46;6.60;;;2.25;;
77432;SDS011;66752;48.576;8.876;2023-11-21T09:26:13;5.40;;;1.80;;
77432;SDS011;66752;48.576;8.876;2023-11-21T09:28:41;3.97;;;1.95;;
77432;SDS011;66752;48.576;8.876;2023-11-21T09:31:11;3.75;;;1.50;;
77432;SDS011;66752;48.576;8.876;2023-11-21T09:33:37;3.80;;;1.35;;
77432;SDS011;66752;48.576;8.876;2023-11-21T09:36:03;5.80;;;1.55;;
77432;SDS011;66752;48.576;8.876;2023-11-21T09:38:29;3.53;;;1.52;;
77432;SDS011;66752;48.576;8.876;2023-11-21T09:40:56;3.88;;;1.45;;
77432;SDS011;66752;48.576;8.876;2023-11-21T09:43:23;3.50;;;1.30;;
77432;SDS011;66752;48.576;8.876;2023-11-21T09:45:56;2.22;;;1.00;;
77432;SDS011;66752;48.576;8.876;2023-11-21T09:48:25;3.63;;;1.30;;
77432;SDS011;66752;48.576;8.876;2023-11-21T09:50:51;3.22;;;1.30;;
77432;SDS011;66752;48.576;8.876;2023-11-21T09:53:19;3.13;;;1.35;;
77432;SDS011;66752;48.576;8.876;2023-11-21T09:55:47;3.20;;;1.20;;
77432;SDS011;66752;48.576;8.876;2023-11-21T09:58:15;4.50;;;1.40;;
77432;SDS011;66752;48.576;8.876;2023-11-21T10:00:44;3.40;;;1.33;;
77432;SDS011;66752;48.576;8.876;2023-11-21T10:03:10;4.13;;;1.45;;
77432;SDS011;66752;48.576;8.876;2023-11-21T10:05:36;3.40;;;1.42;;
77432;SDS011;66752;48.576;8.876;2023-11-21T10:08:09;3.90;;;1.75;;
77432;SDS011;66752;48.576;8.876;2023-11-21T10:10:35;5.15;;;2.03;;
77432;SDS011;66752;48.576;8.876;2023-11-21T10:15:28;3.90;;;1.50;;
77432;SDS011;66752;48.576;8.876;2023-11-21T10:17:55;4.75;;;1.38;;
77432;SDS011;66752;48.576;8.876;2023-11-21T10:20:22;4.10;;;1.35;;
77432;SDS011;66752;48.576;8.876;2023-11-21T10:22:49;3.42;;;1.17;;
77432;SDS011;66752;48.576;8.876;2023-11-21T10:25:15;4.93;;;1.30;;
77432;SDS011;66752;48.576;8.876;2023-11-21T10:27:46;3.47;;;1.30;;
77432;SDS011;66752;48.576;8.876;2023-11-21T10:30:12;3.63;;;1.27;;
77432;SDS011;66752;48.576;8.876;2023-11-21T10:32:38;4.32;;;1.75;;
77432;SDS011;66752;48.576;8.876;2023-11-21T10:35:05;6.20;;;1.55;;
77432;SDS011;66752;48.576;8.876;2023-11-21T10:37:35;3.35;;;1.10;;
77432;SDS011;66752;48.576;8.876;2023-11-21T10:40:01;3.25;;;1.10;;
77432;SDS011;66752;48.576;8.876;2023-11-21T10:42:30;4.10;;;1.35;;
77432;SDS011;66752;48.576;8.876;2023-11-21T10:44:57;3.17;;;1.20;;
77432;SDS011;66752;48.576;8.876;2023-11-21T10:47:23;3.40;;;1.35;;
77432;SDS011;66752;48.576;8.876;2023-11-21T10:49:49;3.78;;;1.30;;
77432;SDS011;66752;48.576;8.876;2023-11-21T10:52:15;3.40;;;1.40;;
77432;SDS011;66752;48.576;8.876;2023-11-21T10:54:42;3.47;;;0.90;;
77432;SDS011;66752;48.576;8.876;2023-11-21T10:57:08;4.78;;;1.27;;
77432;SDS011;66752;48.576;8.876;2023-11-21T10:59:36;2.90;;;0.90;;
77432;SDS011;66752;48.576;8.876;2023-11-21T11:02:07;2.63;;;1.00;;
77432;SDS011;66752;48.576;8.876;2023-11-21T11:04:35;2.10;;;0.70;;
77432;SDS011;66752;48.576;8.876;2023-11-21T11:07:03;3.85;;;1.08;;
77432;SDS011;66752;48.576;8.876;2023-11-21T11:09:31;2.65;;;0.80;;
77432;SDS011;66752;48.576;8.876;2023-11-21T11:12:01;2.70;;;0.82;;
77432;SDS011;66752;48.576;8.876;2023-11-21T11:14:27;3.80;;;1.00;;
77432;SDS011;66752;48.576;8.876;2023-11-21T11:16:53;3.78;;;1.20;;
77432;SDS011;66752;48.576;8.876;2023-11-21T11:19:20;2.85;;;1.02;;
77432;SDS011;66752;48.576;8.876;2023-11-21T11:21:50;3.33;;;1.27;;
77432;SDS011;66752;48.576;8.876;2023-11-21T11:24:27;4.53;;;1.00;;
77432;SDS011;66752;48.576;8.876;2023-11-21T11:27:04;2.25;;;0.95;;
77432;SDS011;66752;48.576;8.876;2023-11-21T11:32:27;2.92;;;1.10;;
77432;SDS011;66752;48.576;8.876;2023-11-21T11:35:14;3.17;;;1.25;;
77432;SDS011;66752;48.576;8.876;2023-11-21T11:37:43;3.50;;;1.23;;
77432;SDS011;66752;48.576;8.876;2023-11-21T11:40:10;3.28;;;1.30;;
77432;SDS011;66752;48.576;8.876;2023-11-21T11:42:37;3.92;;;1.50;;
77432;SDS011;66752;48.576;8.876;2023-11-21T11:45:16;3.50;;;1.40;;
77432;SDS011;66752;48.576;8.876;2023-11-21T11:47:44;4.00;;;1.30;;
77432;SDS011;66752;48.576;8.876;2023-11-21T11:50:11;3.60;;;1.50;;
77432;SDS011;66752;48.576;8.876;2023-11-21T11:52:47;4.78;;;2.10;;
77432;SDS011;66752;48.576;8.876;2023-11-21T11:55:15;4.80;;;1.73;;
77432;SDS011;66752;48.576;8.876;2023-11-21T11:57:44;5.25;;;2.40;;
77432;SDS011;66752;48.576;8.876;2023-11-21T12:02:51;6.22;;;2.15;;
77432;SDS011;66752;48.576;8.876;2023-11-21T12:05:17;5.78;;;2.95;;
77432;SDS011;66752;48.576;8.876;2023-11-21T12:07:45;4.68;;;2.10;;
77432;SDS011;66752;48.576;8.876;2023-11-21T12:10:14;4.25;;;2.00;;
77432;SDS011;66752;48.576;8.876;2023-11-21T12:12:43;3.30;;;1.13;;
77432;SDS011;66752;48.576;8.876;2023-11-21T12:15:10;3.00;;;1.30;;
77432;SDS011;66752;48.576;8.876;2023-11-21T12:17:37;3.28;;;1.15;;
77432;SDS011;66752;48.576;8.876;2023-11-21T12:22:30;3.78;;;1.63;;
77432;SDS011;66752;48.576;8.876;2023-11-21T12:24:56;3.22;;;1.23;;
77432;SDS011;66752;48.576;8.876;2023-11-21T12:27:22;5.00;;;1.60;;
77432;SDS011;66752;48.576;8.876;2023-11-21T12:29:48;3.33;;;1.23;;
77432;SDS011;66752;48.576;8.876;2023-11-21T12:32:14;3.95;;;1.75;;
77432;SDS011;66752;48.576;8.876;2023-11-21T12:34:42;3.63;;;1.30;;
77432;SDS011;66752;48.576;8.876;2023-11-21T12:37:09;3.60;;;1.50;;
77432;SDS011;66752;48.576;8.876;2023-11-21T12:39:35;3.15;;;1.40;;
77432;SDS011;66752;48.576;8.876;2023-11-21T12:42:01;3.45;;;1.33;;
77432;SDS011;66752;48.576;8.876;2023-11-21T12:44:27;4.10;;;2.00;;
77432;SDS011;66752;48.576;8.876;2023-11-21T12:46:54;3.40;;;1.30;;
77432;SDS011;66752;48.576;8.876;2023-11-21T12:49:20;3.85;;;1.67;;
77432;SDS011;66752;48.576;8.876;2023-11-21T12:51:47;5.70;;;3.78;;
77432;SDS011;66752;48.576;8.876;2023-11-21T12:54:13;4.55;;;2.47;;
77432;SDS011;66752;48.576;8.876;2023-11-21T12:56:40;4.85;;;3.25;;
77432;SDS011;66752;48.576;8.876;2023-11-21T12:59:06;5.07;;;2.92;;
77432;SDS011;66752;48.576;8.876;2023-11-21T13:01:36;6.68;;;2.40;;
77432;SDS011;66752;48.576;8.876;2023-11-21T13:04:02;5.93;;;2.40;;
77432;SDS011;66752;48.576;8.876;2023-11-21T13:06:29;5.13;;;1.95;;
77432;SDS011;66752;48.576;8.876;2023-11-21T13:09:03;4.13;;;1.88;;
77432;SDS011;66752;48.576;8.876;2023-11-21T13:11:30;4.78;;;2.85;;
77432;SDS011;66752;48.576;8.876;2023-11-21T13:13:59;4.60;;;2.58;;
77432;SDS011;66752;48.576;8.876;2023-11-21T13:16:25;5.97;;;2.92;;
77432;SDS011;66752;48.576;8.876;2023-11-21T13:18:52;5.18;;;2.97;;
77432;SDS011;66752;48.576;8.876;2023-11-21T13:21:18;5.10;;;2.60;;
77432;SDS011;66752;48.576;8.876;2023-11-21T13:23:47;4.50;;;2.30;;
77432;SDS011;66752;48.576;8.876;2023-11-21T13:26:15;4.78;;;2.33;;
77432;SDS011;66752;48.576;8.876;2023-11-21T13:28:41;6.47;;;2.92;;
77432;SDS011;66752;48.576;8.876;2023-11-21T13:31:11;8.43;;;4.25;;
77432;SDS011;66752;48.576;8.876;2023-11-21T13:33:48;15.18;;;6.53;;
77432;SDS011;66752;48.576;8.876;2023-11-21T13:36:29;4.82;;;2.42;;
77432;SDS011;66752;48.576;8.876;2023-11-21T13:38:58;4.05;;;2.10;;
77432;SDS011;66752;48.576;8.876;2023-11-21T13:41:29;11.75;;;8.07;;
77432;SDS011;66752;48.576;8.876;2023-11-21T13:43:56;8.13;;;5.63;;
77432;SDS011;66752;48.576;8.876;2023-11-21T13:46:39;4.90;;;2.70;;
77432;SDS011;66752;48.576;8.876;2023-11-21T13:49:06;4.85;;;2.38;;
77432;SDS011;66752;48.576;8.876;2023-11-21T13:51:35;5.53;;;3.25;;
77432;SDS011;66752;48.576;8.876;2023-11-21T13:54:09;5.28;;;2.65;;
77432;SDS011;66752;48.576;8.876;2023-11-21T13:56:38;7.47;;;4.10;;
77432;SDS011;66752;48.576;8.876;2023-11-21T13:59:06;8.60;;;4.30;;
77432;SDS011;66752;48.576;8.876;2023-11-21T14:01:53;7.28;;;3.97;;
77432;SDS011;66752;48.576;8.876;2023-11-21T14:04:36;8.93;;;6.22;;
77432;SDS011;66752;48.576;8.876;2023-11-21T14:07:19;7.25;;;3.75;;
77432;SDS011;66752;48.576;8.876;2023-11-21T14:09:50;7.93;;;4.60;;
77432;SDS011;66752;48.576;8.876;2023-11-21T14:12:17;6.43;;;3.35;;
77432;SDS011;66752;48.576;8.876;2023-11-21T14:14:43;14.40;;;8.07;;
77432;SDS011;66752;48.576;8.876;2023-11-21T14:17:13;13.32;;;7.28;;
77432;SDS011;66752;48.576;8.876;2023-11-21T14:19:39;9.88;;;5.53;;
77432;SDS011;66752;48.576;8.876;2023-11-21T14:22:08;9.90;;;5.18;;
77432;SDS011;66752;48.576;8.876;2023-11-21T14:24:35;9.45;;;4.57;;
77432;SDS011;66752;48.576;8.876;2023-11-21T14:27:01;7.18;;;3.22;;
77432;SDS011;66752;48.576;8.876;2023-11-21T14:31:55;15.27;;;6.07;;
77432;SDS011;66752;48.576;8.876;2023-11-21T14:34:22;5.28;;;2.88;;
77432;SDS011;66752;48.576;8.876;2023-11-21T14:36:48;4.85;;;2.53;;
77432;SDS011;66752;48.576;8.876;2023-11-21T14:39:14;5.47;;;1.60;;
77432;SDS011;66752;48.576;8.876;2023-11-21T14:42:03;4.30;;;2.17;;
77432;SDS011;66752;48.576;8.876;2023-11-21T14:44:29;3.88;;;1.58;;
77432;SDS011;66752;48.576;8.876;2023-11-21T14:47:00;5.30;;;2.80;;
77432;SDS011;66752;48.576;8.876;2023-11-21T14:49:31;9.40;;;6.90;;
77432;SDS011;66752;48.576;8.876;2023-11-21T14:52:09;5.00;;;2.63;;
77432;SDS011;66752;48.576;8.876;2023-11-21T14:54:55;5.25;;;2.35;;
77432;SDS011;66752;48.576;8.876;2023-11-21T14:57:41;4.78;;;1.92;;
77432;SDS011;66752;48.576;8.876;2023-11-21T15:00:14;7.35;;;2.58;;
77432;SDS011;66752;48.576;8.876;2023-11-21T15:03:00;5.20;;;2.55;;
77432;SDS011;66752;48.576;8.876;2023-11-21T15:05:26;6.18;;;3.20;;
77432;SDS011;66752;48.576;8.876;2023-11-21T15:07:53;4.63;;;1.92;;
77432;SDS011;66752;48.576;8.876;2023-11-21T15:10:21;4.57;;;1.85;;
77432;SDS011;66752;48.576;8.876;2023-11-21T15:12:58;5.32;;;2.20;;